Terminal Aerodrome Forecast
Issued by NWS

Home | Current Version | Previous Version | Text Only | Print | Product List | Glossary On
Versions: 1 2 3 4 5 6 7 8 9 10 11 12 13 14 15 16 17 18 19 20 21 22 23 24 25 26 27 28 29 30 31 32 33 34 35 36 37 38 39 40 41 42 43 44 45 46
000
FTUS41 KALY 262059 AAB
TAFPSF
TAF AMD
KPSF 262059Z 2621/2718 12007KT P6SM OVC028
      TEMPO 2621/2623 3SM -RAPL BR OVC023
     FM270200 13007KT P6SM VCSH OVC025
     FM270600 12008KT 3SM -FZRA OVC015
     FM271100 12007KT 3SM -RA OVC007 WS020/16035KT=

USA.gov is the U.S. government's official web portal to all federal, state and local government web resources and services.